createdAt,value
2022-09-23T00:00:02.351Z,6
2022-09-23T00:01:02.335Z,7
2022-09-23T00:02:02.335Z,8
2022-09-23T00:03:02.335Z,9
2022-09-23T00:04:02.335Z,10
2022-09-23T00:05:02.336Z,11
2022-09-23T00:06:02.336Z,12
2022-09-23T00:07:02.308Z,12
2022-09-23T00:08:02.308Z,12
2022-09-23T00:09:02.308Z,12
2022-09-23T00:10:02.308Z,10
2022-09-23T00:11:02.308Z,11
2022-09-23T00:12:02.337Z,9
2022-09-23T00:13:02.337Z,12
2022-09-23T00:14:02.337Z,7
2022-09-23T00:15:02.337Z,8
2022-09-23T00:16:02.337Z,6
2022-09-23T00:17:02.338Z,7
2022-09-23T00:18:02.338Z,9
2022-09-23T00:19:02.338Z,9
2022-09-23T00:20:02.338Z,8
2022-09-23T00:21:02.338Z,8
2022-09-23T00:22:02.311Z,10
2022-09-23T00:23:02.311Z,7
2022-09-23T00:24:02.311Z,7
2022-09-23T00:25:02.311Z,6
2022-09-23T00:26:02.311Z,7
2022-09-23T00:27:02.311Z,6
2022-09-23T00:28:02.340Z,6
2022-09-23T00:29:02.340Z,10
2022-09-23T00:30:02.348Z,10
2022-09-23T00:31:02.340Z,9
2022-09-23T00:32:02.341Z,8
2022-09-23T00:33:02.341Z,7
2022-09-23T00:34:02.341Z,8
2022-09-23T00:35:02.341Z,9
2022-09-23T00:36:02.313Z,8
2022-09-23T00:37:02.313Z,9
2022-09-23T00:38:02.314Z,9
2022-09-23T00:39:02.314Z,8
2022-09-23T00:40:02.314Z,7
2022-09-23T00:41:02.314Z,8
2022-09-23T00:42:02.342Z,9
2022-09-23T00:43:02.342Z,9
2022-09-23T00:44:02.343Z,8
2022-09-23T00:45:02.343Z,4
2022-09-23T00:46:02.343Z,5
2022-09-23T00:47:02.343Z,10
2022-09-23T00:48:02.408Z,8
2022-09-23T00:49:02.344Z,8
2022-09-23T00:50:02.344Z,7
2022-09-23T00:51:02.353Z,8
2022-09-23T00:52:02.316Z,6
2022-09-23T00:53:02.316Z,7
2022-09-23T00:54:02.316Z,5
2022-09-23T00:55:02.317Z,7
2022-09-23T00:56:02.317Z,7
2022-09-23T00:57:02.345Z,6
2022-09-23T00:58:02.345Z,8
2022-09-23T00:59:02.345Z,7
2022-09-23T01:00:02.354Z,8
2022-09-23T01:01:02.346Z,10
2022-09-23T01:02:02.346Z,5
2022-09-23T01:03:02.346Z,6
2022-09-23T01:04:02.346Z,5
2022-09-23T01:05:02.346Z,8
2022-09-23T01:06:02.347Z,5
2022-09-23T01:07:02.319Z,6
2022-09-23T01:08:02.319Z,9
2022-09-23T01:09:02.319Z,10
2022-09-23T01:10:02.319Z,7
2022-09-23T01:11:02.319Z,7
2022-09-23T01:12:02.320Z,6
2022-09-23T01:13:02.348Z,7
2022-09-23T01:14:02.348Z,8
2022-09-23T01:15:02.348Z,10
2022-09-23T01:16:02.348Z,7
2022-09-23T01:17:02.349Z,9
2022-09-23T01:18:02.349Z,9
2022-09-23T01:19:02.349Z,8
2022-09-23T01:20:02.349Z,7
2022-09-23T01:21:02.349Z,10
2022-09-23T01:22:02.321Z,8
2022-09-23T01:23:02.322Z,7
2022-09-23T01:24:02.322Z,10
2022-09-23T01:25:02.322Z,8
2022-09-23T01:26:02.322Z,8
2022-09-23T01:27:02.322Z,8
2022-09-23T01:28:02.351Z,9
2022-09-23T01:29:02.351Z,8
2022-09-23T01:30:02.351Z,6
2022-09-23T01:31:02.351Z,6
2022-09-23T01:32:02.351Z,5
2022-09-23T01:33:02.351Z,5
2022-09-23T01:34:02.352Z,4
2022-09-23T01:35:02.352Z,6
2022-09-23T01:36:02.352Z,7
2022-09-23T01:37:02.324Z,4
2022-09-23T01:38:02.324Z,5
2022-09-23T01:39:02.324Z,5
2022-09-23T01:40:02.325Z,5
2022-09-23T01:41:02.325Z,3
2022-09-23T01:42:02.325Z,5
2022-09-23T01:43:02.353Z,3
2022-09-23T01:44:02.353Z,4
2022-09-23T01:45:02.354Z,5
2022-09-23T01:46:02.354Z,4
2022-09-23T01:47:02.354Z,4
2022-09-23T01:48:02.354Z,6
2022-09-23T01:49:02.354Z,7
2022-09-23T01:50:02.354Z,5
2022-09-23T01:51:02.355Z,8
2022-09-23T01:52:02.327Z,7
2022-09-23T01:53:02.327Z,6
2022-09-23T01:54:02.327Z,8
2022-09-23T01:55:02.327Z,10
2022-09-23T01:56:02.327Z,6
2022-09-23T01:57:02.327Z,7
2022-09-23T01:58:02.356Z,9
2022-09-23T01:59:02.356Z,8
2022-09-23T02:00:02.356Z,12
2022-09-23T02:01:02.356Z,10
2022-09-23T02:02:02.356Z,10
2022-09-23T02:03:02.357Z,8
2022-09-23T02:04:02.357Z,10
2022-09-23T02:05:02.357Z,9
2022-09-23T02:06:02.357Z,10
2022-09-23T02:07:02.374Z,10
2022-09-23T02:08:02.329Z,12
2022-09-23T02:09:02.329Z,8
2022-09-23T02:10:02.357Z,7
2022-09-23T02:11:02.330Z,9
2022-09-23T02:12:02.330Z,8
2022-09-23T02:13:02.368Z,8
2022-09-23T02:14:02.359Z,7
2022-09-23T02:15:02.358Z,11
2022-09-23T02:16:02.375Z,8
2022-09-23T02:17:02.359Z,9
2022-09-23T02:18:02.359Z,8
2022-09-23T02:19:02.359Z,7
2022-09-23T02:20:02.360Z,7
2022-09-23T02:21:02.360Z,7
2022-09-23T02:22:02.360Z,7
2022-09-23T02:23:02.332Z,7
2022-09-23T02:24:02.332Z,8
2022-09-23T02:25:02.332Z,7
2022-09-23T02:26:02.332Z,5
2022-09-23T02:27:02.332Z,6
2022-09-23T02:28:02.333Z,9
2022-09-23T02:29:02.361Z,6
2022-09-23T02:30:02.361Z,5
2022-09-23T02:31:02.361Z,5
2022-09-23T02:32:02.361Z,5
2022-09-23T02:33:02.362Z,5
2022-09-23T02:34:02.378Z,5
2022-09-23T02:35:02.362Z,7
2022-09-23T02:36:02.362Z,8
2022-09-23T02:37:02.371Z,7
2022-09-23T02:38:02.334Z,7
2022-09-23T02:39:02.334Z,6
2022-09-23T02:40:02.335Z,8
2022-09-23T02:41:02.335Z,8
2022-09-23T02:42:02.335Z,8
2022-09-23T02:43:02.363Z,8
2022-09-23T02:44:02.364Z,8
2022-09-23T02:45:02.363Z,8
2022-09-23T02:46:02.372Z,8
2022-09-23T02:47:02.364Z,8
2022-09-23T02:48:02.364Z,9
2022-09-23T02:49:02.364Z,11
2022-09-23T02:50:02.364Z,9
2022-09-23T02:51:02.365Z,11
2022-09-23T02:52:02.365Z,9
2022-09-23T02:53:02.337Z,9
2022-09-23T02:54:02.337Z,9
2022-09-23T02:55:02.337Z,8
2022-09-23T02:56:02.337Z,10
2022-09-23T02:57:02.337Z,12
2022-09-23T02:58:02.338Z,13
2022-09-23T02:59:02.366Z,9
2022-09-23T03:00:02.366Z,11
2022-09-23T03:01:02.366Z,9
2022-09-23T03:02:02.366Z,9
2022-09-23T03:03:02.366Z,9
2022-09-23T03:04:02.367Z,8
2022-09-23T03:05:02.367Z,9
2022-09-23T03:06:02.367Z,10
2022-09-23T03:07:02.367Z,9
2022-09-23T03:08:02.339Z,10
2022-09-23T03:09:02.339Z,9
2022-09-23T03:10:02.340Z,11
2022-09-23T03:11:02.340Z,12
2022-09-23T03:12:02.340Z,10
2022-09-23T03:13:02.340Z,8
2022-09-23T03:14:02.368Z,9
2022-09-23T03:15:02.368Z,8
2022-09-23T03:16:02.369Z,8
2022-09-23T03:17:02.369Z,9
2022-09-23T03:18:02.369Z,10
2022-09-23T03:19:02.369Z,10
2022-09-23T03:20:02.369Z,9
2022-09-23T03:21:02.369Z,12
2022-09-23T03:22:02.370Z,9
2022-09-23T03:23:02.395Z,12
2022-09-23T03:24:02.342Z,10
2022-09-23T03:25:02.342Z,12
2022-09-23T03:26:02.342Z,9
2022-09-23T03:27:02.342Z,10
2022-09-23T03:28:02.342Z,12
2022-09-23T03:29:02.371Z,13
2022-09-23T03:30:02.371Z,12
2022-09-23T03:31:02.371Z,10
2022-09-23T03:32:02.371Z,9
2022-09-23T03:33:02.372Z,10
2022-09-23T03:34:02.371Z,8
2022-09-23T03:35:02.372Z,8
2022-09-23T03:36:02.372Z,7
2022-09-23T03:37:02.372Z,7
2022-09-23T03:38:02.381Z,5
2022-09-23T03:39:02.344Z,10
2022-09-23T03:40:02.344Z,10
2022-09-23T03:41:02.345Z,8
2022-09-23T03:42:02.345Z,6
2022-09-23T03:43:02.345Z,6
2022-09-23T03:44:02.373Z,6
2022-09-23T03:45:02.373Z,6
2022-09-23T03:46:02.373Z,7
2022-09-23T03:47:02.382Z,8
2022-09-23T03:48:02.374Z,6
2022-09-23T03:49:02.374Z,5
2022-09-23T03:50:02.374Z,6
2022-09-23T03:51:02.374Z,5
2022-09-23T03:52:02.374Z,7
2022-09-23T03:53:02.375Z,7
2022-09-23T03:54:02.346Z,7
2022-09-23T03:55:02.347Z,9
2022-09-23T03:56:02.347Z,10
2022-09-23T03:57:02.347Z,11
2022-09-23T03:58:02.347Z,10
2022-09-23T03:59:02.347Z,9
2022-09-23T04:00:02.376Z,9
2022-09-23T04:01:02.376Z,12
2022-09-23T04:02:02.376Z,8
2022-09-23T04:03:02.376Z,9
2022-09-23T04:04:02.376Z,8
2022-09-23T04:05:02.376Z,10
2022-09-23T04:06:02.376Z,9
2022-09-23T04:07:02.377Z,10
2022-09-23T04:08:02.377Z,13
2022-09-23T04:09:02.349Z,8
2022-09-23T04:10:02.349Z,8
2022-09-23T04:11:02.349Z,8
2022-09-23T04:12:02.349Z,7
2022-09-23T04:13:02.349Z,7
2022-09-23T04:14:02.350Z,5
2022-09-23T04:15:02.378Z,5
2022-09-23T04:16:02.378Z,6
2022-09-23T04:17:02.378Z,6
2022-09-23T04:18:02.378Z,9
2022-09-23T04:19:02.378Z,10
2022-09-23T04:20:02.379Z,7
2022-09-23T04:21:02.379Z,8
2022-09-23T04:22:02.379Z,8
2022-09-23T04:23:02.379Z,10
2022-09-23T04:24:02.404Z,8
2022-09-23T04:25:02.351Z,8
2022-09-23T04:26:02.351Z,7
2022-09-23T04:27:02.352Z,7
2022-09-23T04:28:02.352Z,7
2022-09-23T04:29:02.352Z,9
2022-09-23T04:30:02.380Z,9
2022-09-23T04:31:02.380Z,12
2022-09-23T04:32:02.381Z,9
2022-09-23T04:33:02.381Z,10
2022-09-23T04:34:02.381Z,10
2022-09-23T04:35:02.381Z,12
2022-09-23T04:36:02.381Z,11
2022-09-23T04:37:02.381Z,12
2022-09-23T04:38:02.381Z,12
2022-09-23T04:39:02.353Z,10
2022-09-23T04:40:02.353Z,12
2022-09-23T04:41:02.354Z,12
2022-09-23T04:42:02.354Z,10
2022-09-23T04:43:02.354Z,14
2022-09-23T04:44:02.354Z,9
2022-09-23T04:45:02.382Z,9
2022-09-23T04:46:02.383Z,7
2022-09-23T04:47:02.383Z,6
2022-09-23T04:48:02.383Z,14
2022-09-23T04:49:02.383Z,12
2022-09-23T04:50:02.383Z,8
2022-09-23T04:51:02.448Z,5
2022-09-23T04:52:02.383Z,5
2022-09-23T04:53:02.383Z,8
2022-09-23T04:54:02.393Z,9
2022-09-23T04:55:02.356Z,11
2022-09-23T04:56:02.356Z,12
2022-09-23T04:57:02.356Z,9
2022-09-23T04:58:02.356Z,8
2022-09-23T04:59:02.356Z,11
2022-09-23T05:00:02.385Z,12
2022-09-23T05:01:02.385Z,14
2022-09-23T05:02:02.385Z,15
2022-09-23T05:03:02.393Z,16
2022-09-23T05:04:02.385Z,22
2022-09-23T05:05:02.385Z,21
2022-09-23T05:06:02.385Z,17
2022-09-23T05:07:02.386Z,15
2022-09-23T05:08:02.386Z,20
2022-09-23T05:09:02.386Z,17
2022-09-23T05:10:02.358Z,15
2022-09-23T05:11:02.358Z,19
2022-09-23T05:12:02.358Z,25
2022-09-23T05:13:02.358Z,21
2022-09-23T05:14:02.359Z,18
2022-09-23T05:15:02.359Z,20
2022-09-23T05:16:02.387Z,21
2022-09-23T05:17:02.387Z,19
2022-09-23T05:18:02.387Z,14
2022-09-23T05:19:02.387Z,15
2022-09-23T05:20:02.387Z,26
2022-09-23T05:21:02.388Z,22
2022-09-23T05:22:02.388Z,25
2022-09-23T05:23:02.388Z,22
2022-09-23T05:24:02.388Z,19
2022-09-23T05:25:02.360Z,25
2022-09-23T05:26:02.360Z,14
2022-09-23T05:27:02.361Z,14
2022-09-23T05:28:02.361Z,10
2022-09-23T05:29:02.361Z,8
2022-09-23T05:30:02.361Z,8
2022-09-23T05:31:02.389Z,8
2022-09-23T05:32:02.389Z,9
2022-09-23T05:33:02.390Z,13
2022-09-23T05:34:02.390Z,11
2022-09-23T05:35:02.390Z,10
2022-09-23T05:36:02.390Z,19
2022-09-23T05:37:02.390Z,14
2022-09-23T05:38:02.390Z,13
2022-09-23T05:39:02.390Z,14
2022-09-23T05:40:02.362Z,20
2022-09-23T05:41:02.363Z,23
2022-09-23T05:42:02.363Z,17
2022-09-23T05:43:02.363Z,22
2022-09-23T05:44:02.363Z,22
2022-09-23T05:45:02.363Z,21
2022-09-23T05:46:02.392Z,24
2022-09-23T05:47:02.391Z,28
2022-09-23T05:48:02.392Z,27
2022-09-23T05:49:02.392Z,26
2022-09-23T05:50:02.392Z,27
2022-09-23T05:51:02.392Z,32
2022-09-23T05:52:02.393Z,28
2022-09-23T05:53:02.393Z,20
2022-09-23T05:54:02.393Z,20
2022-09-23T05:55:02.365Z,19
2022-09-23T05:56:02.365Z,22
2022-09-23T05:57:02.365Z,19
2022-09-23T05:58:02.365Z,17
2022-09-23T05:59:02.365Z,15
2022-09-23T06:00:02.365Z,19
2022-09-23T06:01:02.394Z,18
2022-09-23T06:02:02.394Z,13
2022-09-23T06:03:02.394Z,16
2022-09-23T06:04:02.394Z,23
2022-09-23T06:05:02.394Z,18
2022-09-23T06:06:02.394Z,13
2022-09-23T06:07:02.403Z,16
2022-09-23T06:08:02.395Z,19
2022-09-23T06:09:02.395Z,17
2022-09-23T06:10:02.395Z,22
2022-09-23T06:11:02.367Z,21
2022-09-23T06:12:02.367Z,20
2022-09-23T06:13:02.367Z,18
2022-09-23T06:14:02.368Z,24
2022-09-23T06:15:02.368Z,23
2022-09-23T06:16:02.368Z,30
2022-09-23T06:17:02.396Z,22
2022-09-23T06:18:02.397Z,22
2022-09-23T06:19:02.396Z,29
2022-09-23T06:20:02.397Z,28
2022-09-23T06:21:02.397Z,31
2022-09-23T06:22:02.397Z,29
2022-09-23T06:23:02.397Z,27
2022-09-23T06:24:02.397Z,26
2022-09-23T06:25:02.398Z,29
2022-09-23T06:26:02.370Z,35
2022-09-23T06:27:02.370Z,35
2022-09-23T06:28:02.370Z,31
2022-09-23T06:29:02.370Z,30
2022-09-23T06:30:02.370Z,31
2022-09-23T06:31:02.370Z,30
2022-09-23T06:32:03.623Z,23
2022-09-23T06:34:02.399Z,30
2022-09-23T06:35:02.399Z,31
2022-09-23T06:36:02.399Z,27
2022-09-23T06:37:02.408Z,30
2022-09-23T06:38:02.400Z,26
2022-09-23T06:39:02.400Z,32
2022-09-23T06:40:02.400Z,35
2022-09-23T06:41:02.372Z,31
2022-09-23T06:42:02.372Z,35
2022-09-23T06:43:02.373Z,33
2022-09-23T06:44:02.373Z,30
2022-09-23T06:45:02.373Z,26
2022-09-23T06:46:02.373Z,26
2022-09-23T06:47:02.402Z,40
2022-09-23T06:48:02.402Z,30
2022-09-23T06:49:02.402Z,35
2022-09-23T06:50:02.402Z,31
2022-09-23T06:51:02.402Z,26
2022-09-23T06:52:02.402Z,29
2022-09-23T06:53:02.403Z,32
2022-09-23T06:54:02.403Z,37
2022-09-23T06:55:02.403Z,26
2022-09-23T06:56:02.375Z,34
2022-09-23T06:57:02.375Z,26
2022-09-23T06:58:02.376Z,25
2022-09-23T06:59:02.376Z,30
2022-09-23T07:00:02.376Z,33
2022-09-23T07:01:02.376Z,39
2022-09-23T07:02:02.404Z,32
2022-09-23T07:03:02.405Z,32
2022-09-23T07:04:02.405Z,32
2022-09-23T07:05:02.405Z,31
2022-09-23T07:06:02.405Z,32
2022-09-23T07:07:02.406Z,33
2022-09-23T07:08:02.406Z,28
2022-09-23T07:09:02.406Z,29
2022-09-23T07:10:02.407Z,28
2022-09-23T07:11:02.378Z,23
2022-09-23T07:12:02.379Z,24
2022-09-23T07:13:02.379Z,31
2022-09-23T07:14:02.379Z,29
2022-09-23T07:15:02.379Z,35
2022-09-23T07:16:02.380Z,25
2022-09-23T07:17:02.408Z,27
2022-09-23T07:18:02.408Z,25
2022-09-23T07:19:02.408Z,29
2022-09-23T07:20:02.409Z,20
2022-09-23T07:21:02.409Z,30
2022-09-23T07:22:02.409Z,32
2022-09-23T07:23:02.474Z,32
2022-09-23T07:24:02.410Z,30
2022-09-23T07:25:02.410Z,24
2022-09-23T07:26:02.419Z,25
2022-09-23T07:27:02.382Z,22
2022-09-23T07:28:02.383Z,22
2022-09-23T07:29:02.383Z,30
2022-09-23T07:30:02.383Z,27
2022-09-23T07:31:02.383Z,32
2022-09-23T07:32:09.606Z,27
2022-09-23T07:33:02.412Z,24
2022-09-23T07:34:02.412Z,29
2022-09-23T07:35:02.413Z,27
2022-09-23T07:36:02.413Z,30
2022-09-23T07:37:02.413Z,23
2022-09-23T07:38:02.414Z,29
2022-09-23T07:39:02.414Z,35
2022-09-23T07:40:02.414Z,37
2022-09-23T07:41:02.440Z,32
2022-09-23T07:42:02.387Z,39
2022-09-23T07:43:02.388Z,42
2022-09-23T07:44:02.388Z,36
2022-09-23T07:45:02.388Z,38
2022-09-23T07:46:02.389Z,31
2022-09-23T07:47:02.417Z,34
2022-09-23T07:48:02.417Z,32
2022-09-23T07:49:02.418Z,37
2022-09-23T07:50:02.427Z,33
2022-09-23T07:51:02.419Z,43
2022-09-23T07:52:02.419Z,40
2022-09-23T07:53:02.420Z,36
2022-09-23T07:54:02.420Z,36
2022-09-23T07:55:02.421Z,52
2022-09-23T07:56:02.438Z,45
2022-09-23T07:57:02.393Z,36
2022-09-23T07:58:02.394Z,32
2022-09-23T07:59:02.422Z,47
2022-09-23T08:00:02.394Z,47
2022-09-23T08:01:02.395Z,35
2022-09-23T08:02:02.439Z,42
2022-09-23T08:03:02.424Z,42
2022-09-23T08:04:02.424Z,33
2022-09-23T08:05:02.441Z,36
2022-09-23T08:06:02.425Z,37
2022-09-23T08:07:02.426Z,39
2022-09-23T08:08:02.426Z,44
2022-09-23T08:09:02.427Z,42
2022-09-23T08:10:02.427Z,34
2022-09-23T08:11:02.427Z,34
2022-09-23T08:12:02.400Z,35
2022-09-23T08:13:02.400Z,39
2022-09-23T08:14:02.401Z,38
2022-09-23T08:15:02.401Z,45
2022-09-23T08:16:02.402Z,45
2022-09-23T08:17:02.402Z,31
2022-09-23T08:18:02.431Z,34
2022-09-23T08:19:02.431Z,33
2022-09-23T08:20:02.432Z,38
2022-09-23T08:21:02.432Z,35
2022-09-23T08:22:02.433Z,38
2022-09-23T08:24:02.434Z,43
2022-09-23T08:25:02.434Z,40
2022-09-23T08:26:02.435Z,39
2022-09-23T08:27:02.407Z,37
2022-09-23T08:28:02.408Z,35
2022-09-23T08:29:02.408Z,35
2022-09-23T08:30:02.409Z,41
2022-09-23T08:31:02.409Z,40
2022-09-23T08:32:07.390Z,44
2022-09-23T08:33:02.438Z,51
2022-09-23T08:34:02.439Z,43
2022-09-23T08:35:02.439Z,39
2022-09-23T08:36:02.440Z,35
2022-09-23T08:37:02.440Z,41
2022-09-23T08:38:02.441Z,38
2022-09-23T08:39:02.441Z,33
2022-09-23T08:40:02.442Z,37
2022-09-23T08:41:02.442Z,40
2022-09-23T08:42:02.415Z,38
2022-09-23T08:43:02.415Z,32
2022-09-23T08:44:02.416Z,30
2022-09-23T08:45:02.416Z,39
2022-09-23T08:46:02.417Z,38
2022-09-23T08:47:02.417Z,49
2022-09-23T08:48:02.446Z,45
2022-09-23T08:49:02.446Z,48
2022-09-23T08:50:02.447Z,45
2022-09-23T08:51:02.447Z,43
2022-09-23T08:52:02.448Z,44
2022-09-23T08:53:02.449Z,49
2022-09-23T08:54:02.449Z,42
2022-09-23T08:55:02.450Z,42
2022-09-23T08:56:02.450Z,41
2022-09-23T08:57:02.422Z,42
2022-09-23T08:58:02.423Z,48
2022-09-23T08:59:02.424Z,40
2022-09-23T09:00:02.424Z,41
2022-09-23T09:01:02.425Z,45
2022-09-23T09:02:02.425Z,44
2022-09-23T09:03:02.454Z,46
2022-09-23T09:04:02.454Z,50
2022-09-23T09:05:02.455Z,52
2022-09-23T09:06:02.455Z,53
2022-09-23T09:07:02.456Z,46
2022-09-23T09:08:02.457Z,38
2022-09-23T09:09:02.466Z,36
2022-09-23T09:10:02.458Z,44
2022-09-23T09:11:02.458Z,48
2022-09-23T09:12:02.459Z,49
2022-09-23T09:13:02.431Z,49
2022-09-23T09:14:02.431Z,47
2022-09-23T09:15:02.432Z,49
2022-09-23T09:16:02.432Z,55
2022-09-23T09:17:02.433Z,44
2022-09-23T09:18:02.433Z,55
2022-09-23T09:19:02.462Z,49
2022-09-23T09:20:02.463Z,52
2022-09-23T09:21:02.463Z,56
2022-09-23T09:22:02.464Z,60
2022-09-23T09:23:02.464Z,53
2022-09-23T09:24:02.465Z,52
2022-09-23T09:25:02.465Z,57
2022-09-23T09:26:02.466Z,51
2022-09-23T09:27:02.466Z,55
2022-09-23T09:28:02.439Z,49
2022-09-23T09:29:02.439Z,62
2022-09-23T09:30:02.440Z,55
2022-09-23T09:31:02.440Z,58
2022-09-23T09:32:02.441Z,50
2022-09-23T09:33:02.441Z,46
2022-09-23T09:34:02.470Z,41
2022-09-23T09:35:02.470Z,48
2022-09-23T09:36:02.471Z,42
2022-09-23T09:37:02.471Z,50
2022-09-23T09:38:02.472Z,53
2022-09-23T09:39:02.472Z,52
2022-09-23T09:40:02.473Z,48
2022-09-23T09:41:02.473Z,37
2022-09-23T09:42:02.474Z,47
2022-09-23T09:43:02.447Z,51
2022-09-23T09:44:02.447Z,59
2022-09-23T09:45:02.447Z,50
2022-09-23T09:46:02.448Z,55
2022-09-23T09:47:02.449Z,47
2022-09-23T09:48:02.449Z,60
2022-09-23T09:49:02.478Z,63
2022-09-23T09:50:02.478Z,59
2022-09-23T09:51:02.479Z,56
2022-09-23T09:52:02.479Z,63
2022-09-23T09:53:02.480Z,77
2022-09-23T09:54:02.480Z,69
2022-09-23T09:55:02.481Z,60
2022-09-23T09:56:02.482Z,57
2022-09-23T09:57:02.454Z,57
2022-09-23T09:58:02.454Z,53
2022-09-23T09:59:02.455Z,58
2022-09-23T10:00:02.455Z,63
2022-09-23T10:01:02.456Z,53
2022-09-23T10:02:02.456Z,52
2022-09-23T10:03:02.485Z,69
2022-09-23T10:04:02.485Z,52
2022-09-23T10:05:02.486Z,49
2022-09-23T10:06:02.486Z,61
2022-09-23T10:07:02.487Z,62
2022-09-23T10:08:02.487Z,53
2022-09-23T10:09:02.505Z,55
2022-09-23T10:10:02.489Z,48
2022-09-23T10:11:02.489Z,38
2022-09-23T10:12:02.499Z,48
2022-09-23T10:13:02.462Z,53
2022-09-23T10:14:02.463Z,53
2022-09-23T10:15:02.463Z,44
2022-09-23T10:16:02.464Z,56
2022-09-23T10:17:02.464Z,48
2022-09-23T10:18:02.493Z,59
2022-09-23T10:19:02.493Z,57
2022-09-23T10:20:02.494Z,57
2022-09-23T10:21:02.503Z,44
2022-09-23T10:22:02.495Z,48
2022-09-23T10:23:02.495Z,48
2022-09-23T10:24:02.496Z,52
2022-09-23T10:25:02.496Z,57
2022-09-23T10:26:02.497Z,55
2022-09-23T10:27:02.497Z,42
2022-09-23T10:28:02.470Z,48
2022-09-23T10:29:02.470Z,45
2022-09-23T10:30:02.471Z,51
2022-09-23T10:31:02.471Z,44
2022-09-23T10:32:02.472Z,46
2022-09-23T10:33:02.473Z,58
2022-09-23T10:34:02.501Z,60
2022-09-23T10:35:02.502Z,65
2022-09-23T10:36:02.502Z,68
2022-09-23T10:37:02.503Z,62
2022-09-23T10:38:02.503Z,69
2022-09-23T10:39:02.504Z,62
2022-09-23T10:40:02.504Z,71
2022-09-23T10:41:02.505Z,73
2022-09-23T10:42:02.505Z,66
2022-09-23T10:43:02.478Z,59
2022-09-23T10:44:02.478Z,59
2022-09-23T10:45:02.479Z,60
2022-09-23T10:46:02.479Z,71
2022-09-23T10:47:02.480Z,64
2022-09-23T10:48:02.480Z,64
2022-09-23T10:49:02.509Z,63
2022-09-23T10:50:02.510Z,59
2022-09-23T10:51:02.510Z,64
2022-09-23T10:52:02.510Z,58
2022-09-23T10:53:02.511Z,70
2022-09-23T10:54:02.511Z,60
2022-09-23T10:55:02.512Z,51
2022-09-23T10:56:02.513Z,45
2022-09-23T10:57:02.513Z,48
2022-09-23T10:58:02.486Z,43
2022-09-23T10:59:02.486Z,45
2022-09-23T11:00:02.487Z,37
2022-09-23T11:01:02.487Z,35
2022-09-23T11:02:02.488Z,50
2022-09-23T11:03:02.488Z,46
2022-09-23T11:04:02.517Z,49
2022-09-23T11:05:02.517Z,42
2022-09-23T11:06:02.518Z,51
2022-09-23T11:07:02.518Z,53
2022-09-23T11:08:02.519Z,57
2022-09-23T11:09:02.520Z,50
2022-09-23T11:10:02.520Z,50
2022-09-23T11:11:02.521Z,49
2022-09-23T11:12:02.521Z,48
2022-09-23T11:13:02.493Z,54
2022-09-23T11:14:02.494Z,55
2022-09-23T11:15:02.495Z,54
2022-09-23T11:16:02.495Z,54
2022-09-23T11:17:02.496Z,42
2022-09-23T11:18:02.496Z,48
2022-09-23T11:19:02.525Z,51
2022-09-23T11:20:02.525Z,44
2022-09-23T11:21:02.526Z,41
2022-09-23T11:22:02.527Z,36
2022-09-23T11:23:02.527Z,42
2022-09-23T11:24:02.527Z,51
2022-09-23T11:25:02.528Z,49
2022-09-23T11:26:02.529Z,53
2022-09-23T11:27:02.529Z,56
2022-09-23T11:28:02.547Z,60
2022-09-23T11:29:02.502Z,55
2022-09-23T11:30:02.503Z,52
2022-09-23T11:31:02.531Z,47
2022-09-23T11:32:02.504Z,57
2022-09-23T11:33:02.504Z,58
2022-09-23T11:34:02.533Z,56
2022-09-23T11:35:02.534Z,59
2022-09-23T11:36:02.534Z,60
2022-09-23T11:37:02.535Z,66
2022-09-23T11:38:02.535Z,63
2022-09-23T11:39:02.536Z,63
2022-09-23T11:40:02.536Z,65
2022-09-23T11:41:02.537Z,62
2022-09-23T11:42:02.537Z,69
2022-09-23T11:43:02.538Z,58
2022-09-23T11:44:02.510Z,58
2022-09-23T11:45:02.511Z,64
2022-09-23T11:46:02.511Z,57
2022-09-23T11:47:02.512Z,65
2022-09-23T11:48:02.513Z,57
2022-09-23T11:49:02.513Z,48
2022-09-23T11:50:02.542Z,52
2022-09-23T11:51:02.542Z,59
2022-09-23T11:52:02.543Z,54
2022-09-23T11:53:02.543Z,59
2022-09-23T11:54:02.544Z,58
2022-09-23T11:55:02.545Z,56
2022-09-23T11:56:02.545Z,70
2022-09-23T11:57:02.546Z,77
2022-09-23T11:58:02.546Z,87
2022-09-23T11:59:02.519Z,65
2022-09-23T12:00:02.519Z,67
2022-09-23T12:01:02.520Z,63
2022-09-23T12:02:02.521Z,66
2022-09-23T12:03:02.521Z,67
2022-09-23T12:04:02.522Z,63
2022-09-23T12:05:02.550Z,53
2022-09-23T12:06:02.551Z,71
2022-09-23T12:07:02.552Z,70
2022-09-23T12:08:02.552Z,54
2022-09-23T12:09:02.553Z,61
2022-09-23T12:10:02.553Z,72
2022-09-23T12:11:02.554Z,70
2022-09-23T12:12:02.554Z,70
2022-09-23T12:13:02.555Z,66
2022-09-23T12:14:02.528Z,73
2022-09-23T12:15:02.528Z,70
2022-09-23T12:16:02.529Z,60
2022-09-23T12:17:02.529Z,62
2022-09-23T12:18:02.530Z,64
2022-09-23T12:19:02.530Z,53
2022-09-23T12:20:02.559Z,62
2022-09-23T12:21:02.560Z,51
2022-09-23T12:22:02.560Z,50
2022-09-23T12:23:02.561Z,50
2022-09-23T12:24:02.562Z,51
2022-09-23T12:25:02.562Z,44
2022-09-23T12:26:02.563Z,46
2022-09-23T12:27:02.563Z,51
2022-09-23T12:28:02.564Z,52
2022-09-23T12:29:02.582Z,47
2022-09-23T12:30:02.537Z,41
2022-09-23T12:31:02.537Z,55
2022-09-23T12:32:02.566Z,58
2022-09-23T12:33:02.539Z,49
2022-09-23T12:34:02.539Z,42
2022-09-23T12:35:02.570Z,55
2022-09-23T12:36:02.569Z,54
2022-09-23T12:37:02.569Z,46
2022-09-23T12:38:02.578Z,56
2022-09-23T12:39:02.570Z,63
2022-09-23T12:40:02.571Z,53
2022-09-23T12:41:02.572Z,50
2022-09-23T12:42:02.572Z,48
2022-09-23T12:43:02.573Z,61
2022-09-23T12:44:02.573Z,63
2022-09-23T12:45:02.546Z,65
2022-09-23T12:46:02.546Z,64
2022-09-23T12:47:02.547Z,57
2022-09-23T12:48:02.547Z,57
2022-09-23T12:49:02.548Z,50
2022-09-23T12:50:02.548Z,51
2022-09-23T12:51:02.577Z,61
2022-09-23T12:52:02.577Z,66
2022-09-23T12:53:02.578Z,59
2022-09-23T12:54:02.579Z,70
2022-09-23T12:55:02.579Z,65
2022-09-23T12:56:02.589Z,63
2022-09-23T12:57:02.580Z,60
2022-09-23T12:58:02.581Z,67
2022-09-23T12:59:02.582Z,57
2022-09-23T13:00:02.554Z,56
2022-09-23T13:01:02.554Z,65
2022-09-23T13:02:02.555Z,61
2022-09-23T13:03:02.555Z,61
2022-09-23T13:04:02.556Z,70
2022-09-23T13:05:02.557Z,73
2022-09-23T13:06:02.585Z,59
2022-09-23T13:07:02.586Z,59
2022-09-23T13:08:02.587Z,54
2022-09-23T13:09:02.587Z,56
2022-09-23T13:10:02.587Z,53
2022-09-23T13:11:02.588Z,52
2022-09-23T13:12:02.588Z,60
2022-09-23T13:13:02.589Z,61
2022-09-23T13:14:02.589Z,55
2022-09-23T13:15:02.562Z,50
2022-09-23T13:16:02.562Z,53
2022-09-23T13:17:02.563Z,56
2022-09-23T13:18:02.563Z,54
2022-09-23T13:19:02.564Z,49
2022-09-23T13:20:02.564Z,55
2022-09-23T13:21:02.593Z,55
2022-09-23T13:22:02.593Z,63
2022-09-23T13:23:02.594Z,62
2022-09-23T13:24:02.594Z,60
2022-09-23T13:25:02.595Z,56
2022-09-23T13:26:02.596Z,47
2022-09-23T13:27:02.596Z,66
2022-09-23T13:28:02.597Z,67
2022-09-23T13:29:02.597Z,56
2022-09-23T13:30:02.570Z,59
2022-09-23T13:31:02.570Z,57
2022-09-23T13:32:02.571Z,57
2022-09-23T13:33:02.571Z,66
2022-09-23T13:34:02.572Z,67
2022-09-23T13:35:02.572Z,59
2022-09-23T13:36:02.601Z,51
2022-09-23T13:37:02.602Z,51
2022-09-23T13:38:02.602Z,49
2022-09-23T13:39:02.603Z,58
2022-09-23T13:40:02.603Z,52
2022-09-23T13:41:02.603Z,54
2022-09-23T13:42:02.604Z,49
2022-09-23T13:43:02.605Z,49
2022-09-23T13:44:02.605Z,46
2022-09-23T13:45:02.615Z,57
2022-09-23T13:46:02.578Z,56
2022-09-23T13:47:02.579Z,53
2022-09-23T13:48:02.579Z,51
2022-09-23T13:49:02.580Z,50
2022-09-23T13:50:02.580Z,48
2022-09-23T13:51:02.609Z,50
2022-09-23T13:52:02.609Z,54
2022-09-23T13:53:02.610Z,58
2022-09-23T13:54:02.610Z,52
2022-09-23T13:55:02.611Z,55
2022-09-23T13:56:02.611Z,55
2022-09-23T13:57:02.612Z,50
2022-09-23T13:58:02.612Z,50
2022-09-23T13:59:02.613Z,56
2022-09-23T14:00:02.585Z,63
2022-09-23T14:01:02.586Z,58
2022-09-23T14:02:02.586Z,58
2022-09-23T14:03:02.587Z,54
2022-09-23T14:04:02.588Z,48
2022-09-23T14:05:02.588Z,48
2022-09-23T14:06:02.617Z,53
2022-09-23T14:07:02.617Z,62
2022-09-23T14:08:02.618Z,50
2022-09-23T14:09:02.618Z,58
2022-09-23T14:10:02.619Z,47
2022-09-23T14:11:02.619Z,50
2022-09-23T14:12:02.629Z,44
2022-09-23T14:13:02.620Z,52
2022-09-23T14:14:02.621Z,46
2022-09-23T14:15:02.621Z,46
2022-09-23T14:16:02.594Z,49
2022-09-23T14:17:02.594Z,46
2022-09-23T14:18:02.595Z,48
2022-09-23T14:19:02.595Z,49
2022-09-23T14:20:02.596Z,54
2022-09-23T14:21:02.624Z,58
2022-09-23T14:22:02.625Z,55
2022-09-23T14:23:02.626Z,44
2022-09-23T14:24:02.634Z,42
2022-09-23T14:25:02.626Z,46